Time;durP1;ratioP1;P1;durP2;ratioP2;P2;SDS_P1;SDS_P2;PMS_P1;PMS_P2;Temp;Humidity;BMP_temperature;BMP_pressure;BME280_temperature;BME280_humidity;BME280_pressure;Samples;Min_cycle;Max_cycle;Signal;HPM_P1;HPM_P2
2021/01/11 00:00:24;;;;;;;21.20;15.60;;;3.10;53.00;;;;;;5049289;28;20236;-40
2021/01/11 00:02:51;;;;;;;25.80;15.63;;;3.10;52.90;;;;;;5049374;28;20572;-40
2021/01/11 00:05:16;;;;;;;20.10;14.77;;;3.20;52.90;;;;;;5050281;28;20616;-40
2021/01/11 00:07:43;;;;;;;23.03;13.77;;;3.20;52.90;;;;;;5049299;28;20854;-40
2021/01/11 00:10:13;;;;;;;23.60;15.87;;;3.20;52.70;;;;;;5048552;28;20270;-40
2021/01/11 00:12:45;;;;;;;21.27;13.00;;;3.20;52.40;;;;;;5049420;28;20510;-40
2021/01/11 00:15:12;;;;;;;24.00;14.20;;;2.90;52.80;;;;;;5049414;28;20437;-40
2021/01/11 00:17:38;;;;;;;21.37;14.43;;;2.90;53.20;;;;;;5048031;28;20431;-40
2021/01/11 00:20:06;;;;;;;18.27;13.00;;;3.00;53.30;;;;;;5050637;28;20466;-40
2021/01/11 00:22:33;;;;;;;22.47;14.27;;;3.00;53.10;;;;;;5051410;28;20192;-40
2021/01/11 00:24:58;;;;;;;22.47;13.57;;;3.00;52.90;;;;;;5053077;28;20449;-40
2021/01/11 00:27:24;;;;;;;19.87;14.30;;;3.00;53.00;;;;;;5052453;28;20890;-40
2021/01/11 00:29:49;;;;;;;21.83;13.47;;;3.10;52.90;;;;;;5053017;28;20235;-40
2021/01/11 00:32:15;;;;;;;21.47;14.07;;;3.10;52.70;;;;;;5052988;28;20192;-40
2021/01/11 00:34:40;;;;;;;21.93;14.50;;;3.20;52.60;;;;;;5053821;28;20184;-40
2021/01/11 00:37:06;;;;;;;20.23;14.07;;;3.10;52.50;;;;;;5052147;28;20188;-40
2021/01/11 00:39:32;;;;;;;20.00;14.47;;;3.10;52.50;;;;;;5051985;28;20296;-40
2021/01/11 00:42:00;;;;;;;22.00;12.97;;;3.10;52.30;;;;;;5052481;28;20682;-40
2021/01/11 00:44:26;;;;;;;20.43;13.93;;;3.00;52.30;;;;;;5052852;28;20184;-40
2021/01/11 00:46:52;;;;;;;21.03;13.90;;;3.00;52.30;;;;;;5052813;28;20423;-40
2021/01/11 00:49:18;;;;;;;21.27;13.83;;;2.90;52.50;;;;;;5049950;28;20988;-40
2021/01/11 00:51:44;;;;;;;21.90;12.67;;;3.00;52.70;;;;;;5052437;28;20267;-40
2021/01/11 00:54:10;;;;;;;22.50;15.00;;;2.90;52.50;;;;;;5051418;28;20549;-40
2021/01/11 00:56:36;;;;;;;22.57;14.37;;;2.80;52.80;;;;;;5052380;28;20510;-40
2021/01/11 00:59:01;;;;;;;19.73;13.40;;;2.80;52.90;;;;;;5052923;28;20642;-40
2021/01/11 01:01:27;;;;;;;17.13;12.30;;;2.60;52.90;;;;;;5052738;28;20228;-40
2021/01/11 01:03:53;;;;;;;20.83;13.23;;;2.60;53.30;;;;;;5052712;28;20217;-40
2021/01/11 01:06:19;;;;;;;20.03;13.27;;;2.50;53.30;;;;;;5050828;28;20226;-40
2021/01/11 01:08:44;;;;;;;20.20;12.00;;;2.60;53.40;;;;;;5052334;28;20196;-40
2021/01/11 01:11:11;;;;;;;21.00;13.13;;;2.30;53.40;;;;;;5053429;28;20502;-40
2021/01/11 01:13:37;;;;;;;18.37;12.43;;;2.30;54.20;;;;;;5051737;28;20189;-40
2021/01/11 01:16:04;;;;;;;22.93;12.70;;;2.40;54.10;;;;;;5053066;28;20411;-40
2021/01/11 01:18:30;;;;;;;22.77;13.77;;;2.60;53.70;;;;;;5051871;28;20455;-40
2021/01/11 01:20:55;;;;;;;21.90;14.13;;;2.60;53.20;;;;;;5052367;28;20908;-40
2021/01/11 01:23:21;;;;;;;19.83;13.87;;;2.70;53.00;;;;;;5052205;28;20459;-40
2021/01/11 01:25:46;;;;;;;22.53;12.97;;;2.70;52.90;;;;;;5051854;28;20280;-40
2021/01/11 01:28:12;;;;;;;21.70;13.43;;;2.70;52.80;;;;;;5052044;28;20561;-40
2021/01/11 01:30:38;;;;;;;16.67;12.63;;;2.80;52.50;;;;;;5052141;28;20189;-40
2021/01/11 01:33:04;;;;;;;21.30;14.20;;;2.80;52.30;;;;;;5049755;28;20687;-40
2021/01/11 01:35:29;;;;;;;19.00;13.30;;;2.80;52.10;;;;;;5051794;28;20640;-40
2021/01/11 01:37:55;;;;;;;23.43;13.80;;;2.80;52.10;;;;;;5051444;28;20536;-40
2021/01/11 01:40:21;;;;;;;18.07;12.77;;;2.80;52.10;;;;;;5051928;28;20236;-41
2021/01/11 01:42:47;;;;;;;18.00;12.70;;;2.80;51.90;;;;;;5051910;28;20431;-40
2021/01/11 01:45:13;;;;;;;21.00;12.73;;;2.80;51.80;;;;;;5052279;28;20275;-40
2021/01/11 01:47:39;;;;;;;23.90;13.10;;;2.70;52.10;;;;;;5050959;28;20192;-40
2021/01/11 01:50:07;;;;;;;20.53;13.90;;;2.80;51.60;;;;;;5052466;28;20434;-40
2021/01/11 01:52:36;;;;;;;20.20;13.10;;;2.70;51.70;;;;;;5050445;28;20431;-40
2021/01/11 01:55:03;;;;;;;21.80;12.63;;;2.70;51.70;;;;;;5051035;28;20436;-40
2021/01/11 01:57:28;;;;;;;22.20;12.80;;;2.60;51.40;;;;;;5050761;28;20434;-41
2021/01/11 01:59:54;;;;;;;15.83;11.57;;;2.60;51.40;;;;;;5052444;28;20486;-40
2021/01/11 02:02:20;;;;;;;22.23;13.00;;;2.60;51.50;;;;;;5049220;28;20192;-40
2021/01/11 02:04:46;;;;;;;19.93;13.90;;;2.60;51.60;;;;;;5052098;28;20226;-40
2021/01/11 02:07:20;;;;;;;19.03;13.80;;;2.50;51.50;;;;;;5050260;28;20466;-40
2021/01/11 02:10:17;;;;;;;19.90;13.63;;;2.30;52.10;;;;;;5047253;28;20286;-40
2021/01/11 02:13:05;;;;;;;22.87;14.27;;;2.40;52.70;;;;;;5049723;28;20500;-41
2021/01/11 02:15:57;;;;;;;21.43;12.63;;;2.40;52.50;;;;;;5050881;28;20427;-41
2021/01/11 02:18:51;;;;;;;20.33;13.43;;;2.40;52.40;;;;;;5041512;28;20447;-40
2021/01/11 02:22:04;;;;;;;18.77;12.70;;;2.50;52.10;;;;;;5048766;28;20494;-40
2021/01/11 02:25:07;;;;;;;21.93;13.10;;;2.50;51.90;;;;;;5018313;28;20455;-40
2021/01/11 02:27:55;;;;;;;20.40;13.17;;;2.50;51.90;;;;;;5043656;28;20442;-40
2021/01/11 02:30:27;;;;;;;18.57;13.37;;;2.30;51.70;;;;;;5049394;28;20451;-40
2021/01/11 02:33:01;;;;;;;18.67;12.40;;;1.90;52.20;;;;;;5050977;28;20447;-40
2021/01/11 02:35:29;;;;;;;19.57;12.63;;;1.40;53.20;;;;;;5050209;28;20512;-40
2021/01/11 02:37:57;;;;;;;19.10;12.33;;;1.40;54.30;;;;;;5050325;28;20786;-41
2021/01/11 02:40:23;;;;;;;23.30;13.67;;;1.60;54.20;;;;;;5050124;28;20505;-40
2021/01/11 02:42:48;;;;;;;20.27;12.63;;;1.80;53.70;;;;;;5050394;28;20427;-40
2021/01/11 02:45:14;;;;;;;19.40;13.60;;;1.90;53.20;;;;;;5046679;28;20189;-41
2021/01/11 02:48:07;;;;;;;18.20;13.30;;;2.00;53.00;;;;;;5050796;28;20192;-40
2021/01/11 02:50:44;;;;;;;19.43;12.60;;;2.00;52.70;;;;;;5049292;28;20247;-40
2021/01/11 02:53:31;;;;;;;22.80;13.67;;;2.10;52.60;;;;;;5049516;28;20434;-40
2021/01/11 02:56:02;;;;;;;24.17;13.80;;;2.10;52.30;;;;;;5050323;28;20431;-40
2021/01/11 02:58:33;;;;;;;20.80;13.90;;;1.90;52.20;;;;;;5048895;28;20446;-41
2021/01/11 03:01:02;;;;;;;20.07;12.87;;;1.80;52.40;;;;;;5050719;28;20566;-40
2021/01/11 03:03:30;;;;;;;23.53;13.07;;;1.60;53.00;;;;;;5049439;28;20906;-40
2021/01/11 03:05:56;;;;;;;19.57;13.70;;;1.40;53.20;;;;;;5050277;28;20434;-40
2021/01/11 03:08:24;;;;;;;21.67;13.60;;;1.30;53.50;;;;;;5050491;28;20427;-40
2021/01/11 03:10:53;;;;;;;18.60;12.13;;;1.40;53.70;;;;;;5050547;28;20853;-40
2021/01/11 03:13:20;;;;;;;23.40;13.23;;;1.60;53.40;;;;;;5049181;28;20427;-40
2021/01/11 03:15:45;;;;;;;19.07;13.70;;;1.70;52.90;;;;;;5049551;28;20803;-40
2021/01/11 03:18:12;;;;;;;19.70;12.60;;;1.70;52.70;;;;;;5049804;28;20439;-40
2021/01/11 03:20:37;;;;;;;18.23;12.37;;;1.70;53.10;;;;;;5050716;28;20307;-40
2021/01/11 03:23:03;;;;;;;21.23;13.27;;;1.80;52.60;;;;;;5049699;28;20502;-40
2021/01/11 03:25:29;;;;;;;19.60;12.23;;;1.80;52.20;;;;;;5048286;28;20275;-40
2021/01/11 03:27:54;;;;;;;20.10;12.00;;;1.90;52.30;;;;;;5049979;28;20195;-40
2021/01/11 03:30:20;;;;;;;21.07;12.93;;;1.90;52.30;;;;;;5050146;28;20215;-40
2021/01/11 03:32:49;;;;;;;19.93;13.10;;;1.90;52.00;;;;;;5049371;28;20193;-41
2021/01/11 03:35:15;;;;;;;21.43;13.13;;;1.90;51.80;;;;;;5050002;28;20442;-40
2021/01/11 03:37:41;;;;;;;20.07;12.50;;;2.00;51.80;;;;;;5049001;28;20439;-40
2021/01/11 03:40:07;;;;;;;20.30;12.77;;;2.00;51.60;;;;;;5050327;28;20649;-40
2021/01/11 03:42:37;;;;;;;20.60;11.90;;;2.00;51.50;;;;;;5049503;28;20180;-40
2021/01/11 03:45:04;;;;;;;18.27;12.50;;;2.10;51.40;;;;;;5050657;28;20498;-40
2021/01/11 03:47:29;;;;;;;19.30;13.00;;;2.10;51.30;;;;;;5045912;28;20427;-40
2021/01/11 03:49:57;;;;;;;19.80;11.90;;;2.00;51.20;;;;;;5050132;28;20465;-40
2021/01/11 03:52:23;;;;;;;19.80;11.83;;;2.00;51.30;;;;;;5046664;28;20711;-40
2021/01/11 03:54:49;;;;;;;18.50;12.43;;;2.00;51.10;;;;;;5049958;28;20558;-40
2021/01/11 03:57:14;;;;;;;20.07;11.77;;;1.90;50.90;;;;;;5052450;28;21202;-40
2021/01/11 03:59:40;;;;;;;21.67;12.13;;;1.90;51.20;;;;;;5054336;28;20212;-40
2021/01/11 04:02:05;;;;;;;22.50;13.27;;;1.60;51.30;;;;;;5053531;28;20207;-40
2021/01/11 04:04:31;;;;;;;20.07;13.27;;;1.30;52.40;;;;;;5053924;28;20201;-40
2021/01/11 04:06:57;;;;;;;19.77;12.50;;;1.40;52.80;;;;;;5053807;28;20200;-40
2021/01/11 04:09:22;;;;;;;19.57;13.17;;;1.50;52.70;;;;;;5053220;28;20549;-40
2021/01/11 04:11:48;;;;;;;20.83;12.57;;;1.50;52.40;;;;;;5053183;28;20196;-40
2021/01/11 04:14:13;;;;;;;15.70;11.80;;;1.60;52.20;;;;;;5053877;28;20274;-40
2021/01/11 04:16:39;;;;;;;18.40;11.90;;;1.70;51.90;;;;;;5053626;28;20579;-40
2021/01/11 04:19:05;;;;;;;17.50;11.33;;;1.80;51.60;;;;;;5053766;28;20188;-40
2021/01/11 04:21:30;;;;;;;18.80;12.63;;;1.70;51.50;;;;;;5051881;28;20670;-40
2021/01/11 04:23:56;;;;;;;18.00;11.37;;;1.70;51.40;;;;;;5053419;28;20184;-40
2021/01/11 04:26:21;;;;;;;20.13;12.43;;;1.70;51.40;;;;;;5053146;28;20204;-41
2021/01/11 04:28:47;;;;;;;20.43;12.97;;;1.70;51.30;;;;;;5052854;28;20234;-40
2021/01/11 04:31:13;;;;;;;16.73;11.83;;;1.70;51.20;;;;;;5053501;28;20519;-40
2021/01/11 04:33:38;;;;;;;16.13;10.80;;;1.70;51.10;;;;;;5053107;28;20192;-40
2021/01/11 04:36:04;;;;;;;20.57;13.00;;;1.60;51.10;;;;;;5053241;28;20276;-40
2021/01/11 04:38:30;;;;;;;16.80;11.10;;;1.60;51.20;;;;;;5053160;28;20195;-40
2021/01/11 04:41:03;;;;;;;18.90;11.77;;;1.50;51.20;;;;;;5052324;28;20486;-40
2021/01/11 04:43:41;;;;;;;18.40;12.37;;;1.60;51.20;;;;;;5052652;28;20276;-41
2021/01/11 04:46:07;;;;;;;17.87;11.60;;;1.60;51.00;;;;;;5053082;28;20430;-40
2021/01/11 04:48:33;;;;;;;25.50;13.23;;;1.60;50.90;;;;;;5051479;28;20778;-40
2021/01/11 04:51:00;;;;;;;21.50;12.57;;;1.50;50.80;;;;;;5052145;28;20590;-40
2021/01/11 04:53:27;;;;;;;19.17;12.93;;;1.50;50.90;;;;;;5051058;28;20658;-40
2021/01/11 04:55:54;;;;;;;19.17;11.67;;;1.50;50.80;;;;;;5052825;28;20443;-40
2021/01/11 04:58:21;;;;;;;21.13;12.43;;;1.40;50.70;;;;;;5052265;28;20439;-40
2021/01/11 05:00:48;;;;;;;18.10;11.67;;;1.40;51.00;;;;;;5051853;28;20502;-40
2021/01/11 05:03:14;;;;;;;18.23;12.00;;;1.20;50.90;;;;;;5052432;28;20439;-40
2021/01/11 05:05:41;;;;;;;16.73;11.93;;;1.10;51.20;;;;;;5049643;28;20427;-40
2021/01/11 05:08:07;;;;;;;18.43;11.50;;;1.10;51.40;;;;;;5050881;28;20431;-40
2021/01/11 05:10:35;;;;;;;19.53;12.77;;;1.10;51.50;;;;;;5051999;28;20513;-40
2021/01/11 05:13:05;;;;;;;19.70;12.33;;;1.00;51.90;;;;;;5052391;28;20419;-40
2021/01/11 05:15:33;;;;;;;22.53;13.27;;;1.00;51.80;;;;;;5050553;28;20463;-40
2021/01/11 05:17:59;;;;;;;19.17;12.10;;;0.80;51.80;;;;;;5052407;28;20481;-40
2021/01/11 05:20:30;;;;;;;19.70;12.23;;;0.80;51.90;;;;;;5052418;28;21012;-40
2021/01/11 05:23:07;;;;;;;17.33;12.07;;;0.80;52.10;;;;;;5051380;28;20437;-40
2021/01/11 05:25:36;;;;;;;19.07;12.53;;;0.90;52.00;;;;;;5052012;28;20434;-40
2021/01/11 05:28:11;;;;;;;23.13;12.40;;;0.80;51.90;;;;;;5051898;28;20458;-40
2021/01/11 05:30:38;;;;;;;20.77;12.67;;;0.70;52.00;;;;;;5052048;28;20496;-40
2021/01/11 05:33:06;;;;;;;23.40;13.80;;;0.80;52.00;;;;;;5051385;28;20434;-41
2021/01/11 05:35:32;;;;;;;19.50;12.07;;;0.70;52.10;;;;;;5052141;28;20443;-40
2021/01/11 05:37:59;;;;;;;17.60;11.93;;;0.80;52.00;;;;;;5052044;28;20988;-40
2021/01/11 05:40:29;;;;;;;18.20;12.03;;;0.80;51.80;;;;;;5051874;28;22406;-40
2021/01/11 05:42:57;;;;;;;20.40;12.43;;;0.90;51.70;;;;;;5048999;28;20455;-40
2021/01/11 05:45:30;;;;;;;17.97;11.77;;;0.90;51.70;;;;;;5052180;28;20419;-40
2021/01/11 05:47:56;;;;;;;15.87;11.03;;;0.80;51.90;;;;;;5051096;28;20960;-40
2021/01/11 05:50:25;;;;;;;20.90;12.30;;;0.90;52.10;;;;;;5052172;28;20510;-40
2021/01/11 05:52:50;;;;;;;25.13;12.67;;;0.80;51.90;;;;;;5043518;28;20780;-40
2021/01/11 05:55:24;;;;;;;19.37;12.70;;;0.90;51.80;;;;;;5052354;28;20435;-40
2021/01/11 05:57:54;;;;;;;19.50;11.47;;;0.70;51.40;;;;;;5051017;28;20184;-40
2021/01/11 06:00:22;;;;;;;21.77;12.93;;;0.60;51.80;;;;;;5051327;28;20541;-40
2021/01/11 06:02:49;;;;;;;28.53;14.53;;;0.60;52.10;;;;;;5050996;28;20431;-40
2021/01/11 06:05:18;;;;;;;19.60;13.03;;;0.50;52.00;;;;;;5051920;28;20447;-40
2021/01/11 06:07:45;;;;;;;20.30;14.57;;;0.40;52.40;;;;;;5050920;28;20457;-40
2021/01/11 06:10:13;;;;;;;20.17;13.00;;;0.30;52.60;;;;;;5052023;28;20820;-40
2021/01/11 06:12:39;;;;;;;23.03;14.53;;;0.20;52.80;;;;;;5049932;28;20851;-40
2021/01/11 06:15:16;;;;;;;19.50;12.33;;;0.40;53.00;;;;;;5051237;28;20427;-40
2021/01/11 06:17:44;;;;;;;22.97;11.67;;;0.50;57.90;;;;;;5046237;28;20446;-40
2021/01/11 06:20:17;;;;;;;16.40;11.07;;;1.10;59.60;;;;;;5050707;28;20466;-40
2021/01/11 06:22:45;;;;;;;20.03;12.40;;;1.80;59.30;;;;;;5050700;28;20502;-41
2021/01/11 06:25:35;;;;;;;23.80;11.73;;;2.10;56.30;;;;;;5051154;28;20446;-41
2021/01/11 06:28:11;;;;;;;20.80;12.00;;;2.50;54.70;;;;;;5043801;28;20443;-40
2021/01/11 06:30:42;;;;;;;19.90;12.97;;;2.90;53.60;;;;;;5050356;28;20521;-40
2021/01/11 06:33:26;;;;;;;20.30;13.77;;;2.90;50.70;;;;;;5050237;28;20435;-40
2021/01/11 06:35:54;;;;;;;21.27;14.10;;;2.70;48.80;;;;;;5049814;28;20526;-40
2021/01/11 06:38:22;;;;;;;20.17;12.30;;;2.40;48.40;;;;;;5051178;28;20419;-40
2021/01/11 06:40:54;;;;;;;19.10;12.90;;;1.90;48.90;;;;;;5051668;28;20494;-40
2021/01/11 06:43:21;;;;;;;21.13;13.00;;;1.60;49.90;;;;;;5050386;28;20435;-40
2021/01/11 06:45:49;;;;;;;23.10;14.40;;;1.30;50.70;;;;;;5050762;28;20427;-40
2021/01/11 06:48:17;;;;;;;15.70;12.53;;;1.00;51.10;;;;;;5050530;28;20489;-40
2021/01/11 06:50:44;;;;;;;21.00;12.70;;;1.00;51.10;;;;;;5050803;28;20451;-40
2021/01/11 06:53:10;;;;;;;20.10;12.57;;;1.00;50.90;;;;;;5050817;28;20423;-40
2021/01/11 06:55:36;;;;;;;19.70;12.60;;;0.70;51.10;;;;;;5049320;28;20436;-40
2021/01/11 06:58:02;;;;;;;19.37;12.37;;;0.60;51.70;;;;;;5050528;28;20783;-40
2021/01/11 07:00:40;;;;;;;18.23;11.50;;;0.50;51.70;;;;;;5051131;28;20637;-40
2021/01/11 07:03:09;;;;;;;21.47;13.13;;;0.40;52.00;;;;;;5048424;28;20191;-40
2021/01/11 07:05:35;;;;;;;24.80;13.90;;;0.40;52.20;;;;;;5050021;28;20444;-40
2021/01/11 07:08:07;;;;;;;23.10;12.80;;;0.30;52.50;;;;;;5048397;28;20419;-40
2021/01/11 07:10:37;;;;;;;22.63;13.03;;;0.20;52.60;;;;;;5050594;28;20227;-40
2021/01/11 07:13:18;;;;;;;21.97;14.90;;;0.20;52.90;;;;;;5050001;28;20434;-40
2021/01/11 07:15:47;;;;;;;34.73;20.70;;;0.00;53.10;;;;;;5050990;28;20906;-40
2021/01/11 07:18:38;;;;;;;38.60;20.40;;;-0.20;53.60;;;;;;5050165;28;20423;-40
2021/01/11 07:21:11;;;;;;;28.20;15.53;;;-0.10;54.00;;;;;;5049965;28;20485;-40
2021/01/11 07:23:37;;;;;;;20.43;12.70;;;-0.10;53.90;;;;;;5049678;28;20561;-40
2021/01/11 07:26:02;;;;;;;26.90;14.83;;;0.00;53.80;;;;;;5050126;28;20435;-40
2021/01/11 07:28:28;;;;;;;25.33;13.83;;;-0.10;53.80;;;;;;5051316;28;20793;-40
2021/01/11 07:30:54;;;;;;;24.97;14.37;;;-0.10;53.80;;;;;;5051995;28;20199;-40
2021/01/11 07:33:23;;;;;;;23.67;14.73;;;-0.10;53.90;;;;;;5064382;28;20537;-40
2021/01/11 07:35:48;;;;;;;22.87;14.00;;;-0.10;54.10;;;;;;5048574;28;20485;-40
2021/01/11 07:38:14;;;;;;;18.43;12.53;;;0.00;53.90;;;;;;5048783;28;21310;-40
2021/01/11 07:40:40;;;;;;;20.43;13.27;;;-0.10;54.10;;;;;;5050198;28;20240;-40
2021/01/11 07:43:06;;;;;;;22.43;12.17;;;-0.10;54.50;;;;;;5050524;28;20263;-40
2021/01/11 07:45:32;;;;;;;23.13;13.60;;;0.20;54.70;;;;;;5050332;28;20408;-40
2021/01/11 07:47:57;;;;;;;21.33;13.33;;;0.70;53.90;;;;;;5050287;28;20422;-40
2021/01/11 07:50:30;;;;;;;21.67;14.20;;;1.30;52.30;;;;;;5050654;28;20208;-40
2021/01/11 07:52:56;;;;;;;20.53;13.80;;;1.50;51.00;;;;;;5050462;28;20666;-40
2021/01/11 07:55:34;;;;;;;20.13;14.53;;;1.90;50.50;;;;;;5050587;28;20787;-40
2021/01/11 07:58:03;;;;;;;21.60;14.00;;;1.80;49.60;;;;;;5049431;28;20447;-40
2021/01/11 08:00:29;;;;;;;19.10;12.07;;;1.90;49.90;;;;;;5050974;28;20838;-41
2021/01/11 08:02:56;;;;;;;22.30;13.27;;;1.90;49.70;;;;;;5048480;28;20426;-40
2021/01/11 08:05:23;;;;;;;19.97;12.57;;;1.90;50.30;;;;;;5049998;28;20442;-40
2021/01/11 08:08:00;;;;;;;19.43;13.70;;;2.50;49.70;;;;;;5049849;28;20775;-40
2021/01/11 08:10:26;;;;;;;22.27;13.50;;;3.20;48.40;;;;;;5050674;28;20442;-40
2021/01/11 08:12:52;;;;;;;20.63;13.20;;;3.60;47.20;;;;;;5050350;28;20436;-41
2021/01/11 08:15:20;;;;;;;18.80;14.17;;;3.60;46.70;;;;;;5049968;28;20275;-40
2021/01/11 08:17:46;;;;;;;18.70;12.03;;;3.40;47.10;;;;;;5049948;28;20208;-40
2021/01/11 08:20:21;;;;;;;21.97;13.40;;;2.90;48.20;;;;;;5049653;28;20962;-40
2021/01/11 08:22:47;;;;;;;19.00;12.60;;;2.60;49.40;;;;;;5050215;28;20773;-40
2021/01/11 08:25:12;;;;;;;23.10;12.60;;;2.30;50.30;;;;;;5052135;28;20441;-40
2021/01/11 08:27:48;;;;;;;21.27;13.93;;;1.90;51.20;;;;;;5047972;28;20590;-41
2021/01/11 08:30:19;;;;;;;18.83;13.60;;;1.80;52.20;;;;;;5046770;28;20233;-40
2021/01/11 08:32:46;;;;;;;22.27;13.80;;;2.00;52.60;;;;;;5044405;28;20427;-40
2021/01/11 08:35:14;;;;;;;17.47;12.70;;;2.00;52.80;;;;;;5048610;28;20500;-40
2021/01/11 08:37:42;;;;;;;21.77;13.83;;;1.90;53.20;;;;;;5047020;28;20750;-42
2021/01/11 08:40:10;;;;;;;18.80;13.20;;;1.70;53.30;;;;;;5049836;28;20486;-40
2021/01/11 08:42:38;;;;;;;20.10;13.40;;;1.70;54.10;;;;;;5049635;28;20431;-40
2021/01/11 08:45:28;;;;;;;21.80;13.27;;;1.70;54.30;;;;;;5052756;28;20992;-40
2021/01/11 08:48:04;;;;;;;34.37;14.90;;;1.50;54.70;;;;;;5052919;28;20435;-40
2021/01/11 08:50:34;;;;;;;20.23;13.50;;;1.60;54.80;;;;;;5053105;28;20529;-40
2021/01/11 08:53:18;;;;;;;19.70;13.97;;;1.50;55.00;;;;;;5052856;28;20778;-40
2021/01/11 08:56:12;;;;;;;23.60;14.50;;;1.30;56.10;;;;;;5050293;28;20423;-40
2021/01/11 08:58:46;;;;;;;23.10;13.77;;;0.90;56.50;;;;;;5051604;28;20443;-40
2021/01/11 09:01:24;;;;;;;24.63;15.23;;;1.00;56.90;;;;;;5053376;28;20545;-40
2021/01/11 09:03:52;;;;;;;25.33;14.83;;;0.70;57.30;;;;;;5051925;28;20824;-40
2021/01/11 09:06:45;;;;;;;24.07;13.40;;;0.60;58.30;;;;;;5052876;28;20504;-40
2021/01/11 09:09:11;;;;;;;24.33;14.27;;;0.60;57.80;;;;;;5052706;28;20852;-40
2021/01/11 09:11:38;;;;;;;28.77;13.70;;;0.40;58.50;;;;;;5052056;28;20446;-40
2021/01/11 09:14:09;;;;;;;27.77;14.87;;;0.40;59.00;;;;;;5051375;28;20937;-40
2021/01/11 09:16:37;;;;;;;23.20;14.87;;;0.70;59.20;;;;;;5053169;28;20449;-40
2021/01/11 09:19:10;;;;;;;28.33;15.27;;;1.00;58.90;;;;;;5051905;28;20517;-40
2021/01/11 09:21:36;;;;;;;21.97;13.90;;;1.20;57.90;;;;;;5052692;28;20521;-40
2021/01/11 09:24:02;;;;;;;21.30;14.17;;;1.40;57.30;;;;;;5050832;28;20463;-40
2021/01/11 09:26:32;;;;;;;25.80;13.67;;;1.60;57.40;;;;;;5052052;28;20463;-40
2021/01/11 09:28:58;;;;;;;20.73;13.83;;;1.70;57.70;;;;;;5051970;28;20223;-40
2021/01/11 09:31:23;;;;;;;18.73;11.90;;;1.80;56.00;;;;;;5052187;28;20928;-40
2021/01/11 09:33:49;;;;;;;20.67;13.03;;;1.80;55.30;;;;;;5051958;28;20242;-40
2021/01/11 09:36:15;;;;;;;20.60;13.03;;;2.00;54.60;;;;;;5052369;28;21342;-40
2021/01/11 09:38:40;;;;;;;21.30;14.60;;;2.00;54.60;;;;;;5051378;28;20180;-40
2021/01/11 09:41:06;;;;;;;23.40;13.50;;;2.40;55.20;;;;;;5052089;28;20228;-41
2021/01/11 09:43:31;;;;;;;19.47;12.90;;;2.60;55.20;;;;;;5051067;28;20608;-40
2021/01/11 09:45:59;;;;;;;20.40;14.30;;;2.60;53.90;;;;;;5051346;28;20648;-40
2021/01/11 09:48:25;;;;;;;21.57;13.57;;;2.50;53.80;;;;;;5050457;28;20192;-40
2021/01/11 09:50:51;;;;;;;22.87;13.77;;;2.70;54.20;;;;;;5051789;28;20415;-40
2021/01/11 09:53:16;;;;;;;17.43;12.20;;;2.70;53.10;;;;;;5048836;28;20197;-40
2021/01/11 09:55:42;;;;;;;20.70;14.47;;;2.80;52.60;;;;;;5051295;28;20185;-41
2021/01/11 09:58:14;;;;;;;18.07;13.40;;;2.90;52.60;;;;;;5050976;28;20181;-40
2021/01/11 10:00:39;;;;;;;16.93;11.73;;;3.40;52.70;;;;;;5052218;28;20228;-41
2021/01/11 10:03:05;;;;;;;19.90;11.87;;;3.70;50.70;;;;;;5050776;28;20431;-41
2021/01/11 10:05:31;;;;;;;20.43;12.80;;;3.80;50.80;;;;;;5051757;28;20234;-42
2021/01/11 10:07:57;;;;;;;21.60;14.10;;;4.20;49.60;;;;;;5046263;28;20268;-42
2021/01/11 10:10:23;;;;;;;21.90;13.40;;;4.70;48.70;;;;;;5043608;28;20571;-42
2021/01/11 10:12:48;;;;;;;19.30;13.50;;;5.10;48.40;;;;;;5045709;28;20231;-42
2021/01/11 10:15:14;;;;;;;20.00;12.27;;;5.10;46.90;;;;;;5049768;28;20246;-42
2021/01/11 10:17:40;;;;;;;19.97;12.93;;;5.20;47.60;;;;;;5050531;28;20196;-42
2021/01/11 10:20:07;;;;;;;19.33;13.33;;;5.60;46.70;;;;;;5048948;28;20228;-42
2021/01/11 10:22:33;;;;;;;17.27;12.87;;;5.90;45.80;;;;;;5049901;28;20191;-42
2021/01/11 10:25:00;;;;;;;19.40;13.00;;;6.10;45.70;;;;;;5050100;28;20518;-42
2021/01/11 10:27:25;;;;;;;22.20;12.73;;;6.40;44.90;;;;;;5044068;28;20581;-42
2021/01/11 10:29:51;;;;;;;17.57;12.13;;;6.60;44.00;;;;;;5048797;28;20425;-42
2021/01/11 10:32:17;;;;;;;23.50;12.50;;;6.60;43.90;;;;;;5052058;28;20188;-41
2021/01/11 10:34:42;;;;;;;21.20;13.43;;;6.60;43.40;;;;;;5051117;28;20185;-42
2021/01/11 10:37:08;;;;;;;22.60;13.93;;;6.50;43.80;;;;;;5049790;28;20665;-41
2021/01/11 10:39:34;;;;;;;18.83;13.33;;;6.30;43.70;;;;;;5048710;28;20218;-41
2021/01/11 10:42:00;;;;;;;18.10;12.17;;;5.90;44.70;;;;;;5050883;28;20315;-41
2021/01/11 10:44:27;;;;;;;23.07;13.20;;;5.90;44.40;;;;;;5049709;28;21660;-41
2021/01/11 10:46:53;;;;;;;20.47;13.20;;;5.90;45.00;;;;;;5050658;28;20438;-42
2021/01/11 10:49:20;;;;;;;20.00;13.53;;;6.20;44.90;;;;;;5047993;28;20439;-41
2021/01/11 10:51:46;;;;;;;18.07;13.73;;;6.50;44.50;;;;;;5049786;28;20471;-42
2021/01/11 10:54:12;;;;;;;21.53;13.10;;;6.90;43.50;;;;;;5048196;28;20500;-41
2021/01/11 10:56:38;;;;;;;25.20;13.73;;;6.50;43.70;;;;;;5050728;28;20424;-42
2021/01/11 10:59:03;;;;;;;21.03;13.53;;;6.80;43.60;;;;;;5049072;28;20922;-41
2021/01/11 11:01:29;;;;;;;19.17;12.00;;;7.10;43.30;;;;;;5050755;28;20738;-41
2021/01/11 11:03:55;;;;;;;20.70;12.40;;;7.30;42.50;;;;;;5046183;28;20271;-40
2021/01/11 11:06:22;;;;;;;19.03;13.50;;;7.20;42.30;;;;;;5066809;28;20245;-41
2021/01/11 11:08:48;;;;;;;23.27;12.57;;;6.90;42.30;;;;;;5049166;28;20736;-41
2021/01/11 11:11:13;;;;;;;18.83;13.90;;;6.80;42.30;;;;;;5050921;28;20415;-42
2021/01/11 11:13:40;;;;;;;17.97;12.80;;;6.80;43.20;;;;;;5047778;28;20434;-41
2021/01/11 11:16:07;;;;;;;19.63;13.40;;;7.10;42.60;;;;;;5050263;28;20281;-41
2021/01/11 11:18:36;;;;;;;21.47;13.33;;;7.10;42.30;;;;;;5051695;28;20929;-41
2021/01/11 11:21:05;;;;;;;18.03;12.57;;;7.10;41.60;;;;;;5051515;28;20528;-42
2021/01/11 11:23:31;;;;;;;20.23;13.10;;;7.10;42.10;;;;;;5050984;28;20956;-41
2021/01/11 11:25:56;;;;;;;20.30;12.67;;;7.20;42.10;;;;;;5051824;28;20419;-41
2021/01/11 11:28:22;;;;;;;17.67;12.70;;;7.30;41.50;;;;;;5047886;28;20427;-42
2021/01/11 11:30:48;;;;;;;18.50;12.70;;;7.40;41.50;;;;;;5052275;28;20628;-41
2021/01/11 11:33:13;;;;;;;19.53;11.97;;;7.40;41.90;;;;;;5048470;28;20193;-42
2021/01/11 11:35:41;;;;;;;19.10;11.70;;;7.40;41.60;;;;;;5046744;28;20184;-41
2021/01/11 11:38:11;;;;;;;17.80;12.20;;;7.40;41.40;;;;;;5046233;28;20640;-41
2021/01/11 11:40:40;;;;;;;18.53;11.40;;;7.40;41.70;;;;;;5048734;28;20482;-42
2021/01/11 11:43:06;;;;;;;21.07;13.80;;;7.40;41.60;;;;;;5047733;28;20525;-42
2021/01/11 11:45:32;;;;;;;16.47;10.93;;;7.50;41.20;;;;;;5050436;28;20514;-41
2021/01/11 11:47:58;;;;;;;18.83;13.03;;;7.30;41.60;;;;;;5049112;28;20427;-41
2021/01/11 11:50:25;;;;;;;18.67;12.00;;;7.20;41.50;;;;;;5048652;28;20957;-41
2021/01/11 11:52:51;;;;;;;16.87;11.30;;;7.10;41.60;;;;;;5045434;28;20470;-42
2021/01/11 11:55:16;;;;;;;16.50;11.10;;;7.20;41.50;;;;;;5049088;28;21290;-41
2021/01/11 11:57:43;;;;;;;20.73;13.47;;;6.70;41.40;;;;;;5051960;28;20185;-42
2021/01/11 12:00:15;;;;;;;20.83;12.80;;;6.70;42.50;;;;;;5046681;28;20553;-42
2021/01/11 12:02:45;;;;;;;19.37;13.33;;;6.90;42.50;;;;;;5048258;28;20957;-42
2021/01/11 12:05:12;;;;;;;22.03;13.50;;;7.10;42.20;;;;;;5050554;28;20573;-42
2021/01/11 12:07:38;;;;;;;16.97;11.90;;;7.20;41.60;;;;;;5050845;28;20430;-42
2021/01/11 12:10:06;;;;;;;22.13;12.40;;;7.20;41.30;;;;;;5050097;28;20443;-41
2021/01/11 12:12:32;;;;;;;20.90;12.47;;;7.30;41.20;;;;;;5049037;28;21283;-42
2021/01/11 12:14:59;;;;;;;19.87;11.80;;;7.30;40.90;;;;;;5052492;28;20431;-42
2021/01/11 12:17:25;;;;;;;16.30;10.93;;;7.10;41.10;;;;;;5049171;28;20204;-41
2021/01/11 12:19:51;;;;;;;17.77;11.70;;;7.30;41.30;;;;;;5056836;28;20431;-41
2021/01/11 12:22:17;;;;;;;18.50;12.90;;;7.40;41.30;;;;;;5052135;28;20471;-42
2021/01/11 12:24:42;;;;;;;20.50;12.30;;;7.50;41.20;;;;;;5052797;28;20197;-42
2021/01/11 12:27:10;;;;;;;20.30;12.30;;;7.40;41.50;;;;;;5056868;28;20185;-42
2021/01/11 12:29:36;;;;;;;17.70;12.20;;;7.60;41.30;;;;;;5052639;28;20208;-42
2021/01/11 12:32:06;;;;;;;22.30;13.00;;;7.80;40.80;;;;;;5056075;28;20450;-41
2021/01/11 12:34:44;;;;;;;18.50;11.73;;;7.80;40.20;;;;;;5054708;28;20288;-42
2021/01/11 12:37:14;;;;;;;18.77;12.63;;;7.70;40.90;;;;;;5051174;28;20463;-42
2021/01/11 12:39:40;;;;;;;18.90;12.50;;;7.50;40.90;;;;;;5050616;28;20431;-42
2021/01/11 12:42:09;;;;;;;17.23;12.07;;;7.80;40.80;;;;;;5049664;28;20988;-41